^^
Meteo Knjazevac Station Historical Data
Daily Summary for May 22, 2021 Units:  English    Metric   Both
Daily Weekly Monthly Yearly Custom
  High: Low: Average:
Temperature: 20 °F 16 °F 17.9 °F
Dew Point: 18.2 °F 14.3 °F 16.1 °F
Humidity: 94% 91% 93%
Wind Speed: 3mph 0mph 1.6mph
Wind Gust: 5mph - -
Wind- - WNW
Pressure: 30.36 in 30.34 in -
Precipitation: 0.00 in    
Historical Graphs
 
 
Tabular Data for May 22, 2021
Time Temperature Dew Point Pressure Wind Wind Speed Wind Gust Humidity Rainfall Rate (Hourly) solar Conditions
00:00 20 °F 17.8 °F 30.36 in West 3 mph 4 mph 91% 0.00 in 0 W/m2
00:10 19.8 °F 17.6 °F 30.35 in WNW 2 mph 5 mph 91% 0.00 in 0 W/m2
00:20 19.9 °F 18.2 °F 30.35 in WNW 2 mph 3 mph 93% 0.00 in 0 W/m2
00:30 19.8 °F 17.6 °F 30.35 in WNW 1 mph 3 mph 91% 0.00 in 0 W/m2
00:40 19.6 °F 17.4 °F 30.35 in WNW 2 mph 2 mph 91% 0.00 in 0 W/m2
00:50 19.3 °F 17.1 °F 30.35 in West 1 mph 3 mph 91% 0.00 in 0 W/m2
01:00 19 °F 16.8 °F 30.35 in West 2 mph 4 mph 91% 0.00 in 0 W/m2
01:10 18.7 °F 16.5 °F 30.35 in WNW 2 mph 3 mph 91% 0.00 in 0 W/m2
01:20 18.5 °F 16.6 °F 30.35 in WNW 2 mph 3 mph 92% 0.00 in 0 W/m2
01:30 18.5 °F 16.3 °F 30.35 in WNW 2 mph 3 mph 91% 0.00 in 0 W/m2
01:40 18.2 °F 16.5 °F 30.35 in WNW 2 mph 3 mph 93% 0.00 in 0 W/m2
01:50 18.3 °F 16.6 °F 30.35 in WNW 2 mph 4 mph 93% 0.00 in 0 W/m2
02:00 18.5 °F 17.1 °F 30.35 in NW 2 mph 3 mph 94% 0.00 in 0 W/m2
02:10 18.9 °F 17.4 °F 30.35 in NNW 1 mph 3 mph 94% 0.00 in 0 W/m2
02:20 18.9 °F 17.4 °F 30.35 in NNW 1 mph 2 mph 94% 0.00 in 0 W/m2
02:30 18.9 °F 17.4 °F 30.35 in North 1 mph 2 mph 94% 0.00 in 0 W/m2
02:40 18.5 °F 16.8 °F 30.35 in Calm   2 mph 93% 0.00 in 0 W/m2
02:50 18.5 °F 16.8 °F 30.35 in NNW 1 mph 3 mph 93% 0.00 in 0 W/m2
03:00 18 °F 15.8 °F 30.34 in WNW 1 mph 2 mph 91% 0.00 in 0 W/m2
03:10 17.7 °F 15.5 °F 30.34 in WNW 2 mph 2 mph 91% 0.00 in 0 W/m2
03:20 17.4 °F 15.2 °F 30.34 in WNW 2 mph 4 mph 91% 0.00 in 0 W/m2
03:30 17.2 °F 15.6 °F 30.34 in WNW 2 mph 5 mph 93% 0.00 in 0 W/m2
03:40 17.6 °F 16.2 °F 30.34 in WNW 2 mph 5 mph 94% 0.00 in 0 W/m2
03:50 17.4 °F 15.7 °F 30.34 in WNW 2 mph 3 mph 93% 0.00 in 0 W/m2
04:00 17.2 °F 15.6 °F 30.34 in Calm   3 mph 93% 0.00 in 0 W/m2
04:10 17.1 °F 15.4 °F 30.34 in West 2 mph 3 mph 93% 0.00 in 0 W/m2
04:20 16.9 °F 15.2 °F 30.34 in West 1 mph 3 mph 93% 0.00 in 0 W/m2
04:30 16.5 °F 14.9 °F 30.34 in WNW 2 mph 3 mph 93% 0.00 in 0 W/m2
04:40 16.5 °F 14.9 °F 30.34 in WNW 2 mph 4 mph 93% 0.00 in 0 W/m2
04:50 16.5 °F 14.9 °F 30.34 in WNW 1 mph 3 mph 93% 0.00 in 0 W/m2
05:00 16.3 °F 14.7 °F 30.34 in WNW 2 mph 3 mph 93% 0.00 in 0 W/m2
05:10 16.4 °F 15 °F 30.34 in West 1 mph 3 mph 94% 0.00 in 0 W/m2
05:20 16.2 °F 14.5 °F 30.34 in WNW 2 mph 3 mph 93% 0.00 in 0 W/m2
05:30 16.2 °F 14.5 °F 30.35 in WNW 2 mph 4 mph 93% 0.00 in 0 W/m2
05:40 16.2 °F 14.5 °F 30.35 in WNW 1 mph 2 mph 93% 0.00 in 0 W/m2
05:50 16 °F 14.3 °F 30.35 in WNW 1 mph 3 mph 93% 0.00 in 0 W/m2
Knjazevac, Serbia
Compliments of Weather Underground - 2 mb